createdAt,value
2022-10-29T00:04:12.009Z,0
2022-10-29T00:09:12.167Z,0
2022-10-29T00:14:11.545Z,0
2022-10-29T00:19:11.745Z,0
2022-10-29T00:24:12.027Z,0
2022-10-29T00:29:12.203Z,0
2022-10-29T00:34:11.956Z,0
2022-10-29T00:39:12.237Z,0
2022-10-29T00:44:11.435Z,0
2022-10-29T00:49:11.458Z,0
2022-10-29T00:54:11.794Z,0
2022-10-29T00:59:12.248Z,0
2022-10-29T01:04:12.341Z,0
2022-10-29T01:09:12.051Z,0
2022-10-29T01:14:12.364Z,0
2022-10-29T01:19:12.547Z,0
2022-10-29T01:24:12.218Z,0
2022-10-29T01:29:12.071Z,0
2022-10-29T01:34:11.972Z,0
2022-10-29T01:39:11.817Z,0
2022-10-29T01:44:12.920Z,0
2022-10-29T01:49:12.523Z,0
2022-10-29T01:54:11.837Z,0
2022-10-29T01:59:18.465Z,0
2022-10-29T02:04:12.449Z,0
2022-10-29T02:09:12.234Z,0
2022-10-29T02:14:12.307Z,0
2022-10-29T02:19:11.786Z,0
2022-10-29T02:24:12.173Z,0
2022-10-29T02:29:12.418Z,0
2022-10-29T02:34:11.682Z,0
2022-10-29T02:39:12.263Z,0
2022-10-29T02:44:12.171Z,0
2022-10-29T02:49:12.682Z,0
2022-10-29T02:54:12.642Z,0
2022-10-29T02:59:12.145Z,0
2022-10-29T03:04:11.957Z,0
2022-10-29T03:09:11.863Z,0
2022-10-29T03:14:11.810Z,0
2022-10-29T03:19:12.289Z,0
2022-10-29T03:24:12.276Z,0
2022-10-29T03:29:12.745Z,0
2022-10-29T03:34:12.587Z,0
2022-10-29T03:39:12.472Z,0
2022-10-29T03:44:11.756Z,0
2022-10-29T03:49:12.204Z,0
2022-10-29T03:54:12.361Z,0
2022-10-29T03:59:11.667Z,0
2022-10-29T04:04:12.613Z,0
2022-10-29T04:09:11.939Z,0
2022-10-29T04:14:12.375Z,0
2022-10-29T04:19:11.982Z,0
2022-10-29T04:29:11.717Z,0
2022-10-29T04:34:11.998Z,0
2022-10-29T04:39:11.937Z,0
2022-10-29T04:44:12.218Z,0
2022-10-29T04:49:12.168Z,0
2022-10-29T04:54:11.884Z,0
2022-10-29T04:59:12.073Z,0
2022-10-29T05:04:12.255Z,0
2022-10-29T05:09:11.966Z,0
2022-10-29T05:14:12.262Z,0
2022-10-29T05:19:11.983Z,0
2022-10-29T05:24:12.060Z,0
2022-10-29T05:29:12.322Z,0
2022-10-29T05:34:12.488Z,0
2022-10-29T05:39:12.577Z,0
2022-10-29T05:44:11.947Z,0
2022-10-29T05:49:12.038Z,0
2022-10-29T05:54:12.281Z,0
2022-10-29T05:59:12.412Z,0
2022-10-29T06:04:12.534Z,0
2022-10-29T06:09:11.738Z,0
2022-10-29T06:14:11.949Z,0
2022-10-29T06:19:12.267Z,0
2022-10-29T06:24:12.489Z,0
2022-10-29T06:29:12.551Z,0
2022-10-29T06:34:12.322Z,5
2022-10-29T06:39:11.836Z,5
2022-10-29T06:44:12.099Z,10.2
2022-10-29T06:49:12.109Z,10.2
2022-10-29T06:54:12.544Z,17
2022-10-29T06:59:12.228Z,17
2022-10-29T07:04:11.999Z,24.8
2022-10-29T07:09:12.368Z,24.8
2022-10-29T07:14:12.045Z,31
2022-10-29T07:19:11.935Z,31
2022-10-29T07:24:11.883Z,40
2022-10-29T07:29:12.164Z,40
2022-10-29T07:34:12.069Z,56.4
2022-10-29T07:39:12.013Z,56.4
2022-10-29T07:44:12.383Z,64.9
2022-10-29T07:49:12.428Z,64.9
2022-10-29T07:54:14.877Z,70.1
2022-10-29T07:59:11.893Z,70.1
2022-10-29T08:04:11.961Z,61.6
2022-10-29T08:09:12.273Z,61.6
2022-10-29T08:14:11.990Z,90.8
2022-10-29T08:19:12.372Z,90.8
2022-10-29T08:24:12.322Z,80.8
2022-10-29T08:29:12.701Z,80.8
2022-10-29T08:34:12.152Z,76.8
2022-10-29T08:39:12.683Z,76.8
2022-10-29T08:44:12.163Z,68.1
2022-10-29T08:49:12.618Z,68.1
2022-10-29T08:54:31.764Z,108.2
2022-10-29T08:59:12.469Z,108.2
2022-10-29T09:04:12.355Z,95.2
2022-10-29T09:09:12.540Z,95.2
2022-10-29T09:14:11.934Z,78
2022-10-29T09:19:12.099Z,78
2022-10-29T09:24:12.731Z,89
2022-10-29T09:29:12.054Z,89
2022-10-29T09:34:12.699Z,61
2022-10-29T09:39:12.131Z,61
2022-10-29T09:44:12.596Z,109.3
2022-10-29T09:49:11.923Z,109.3
2022-10-29T09:54:12.296Z,113.4
2022-10-29T09:59:12.057Z,113.4
2022-10-29T10:04:12.706Z,210.7
2022-10-29T10:09:12.171Z,210.7
2022-10-29T10:14:12.697Z,170.7
2022-10-29T10:19:12.722Z,170.7
2022-10-29T10:24:12.142Z,134.4
2022-10-29T10:29:12.566Z,134.4
2022-10-29T10:34:12.907Z,116
2022-10-29T10:39:11.989Z,116
2022-10-29T10:44:12.797Z,131
2022-10-29T10:49:12.217Z,131
2022-10-29T10:54:12.060Z,132
2022-10-29T10:59:12.458Z,132
2022-10-29T11:04:12.488Z,111.3
2022-10-29T11:09:12.412Z,111.3
2022-10-29T11:14:12.232Z,139.1
2022-10-29T11:19:12.381Z,139.1
2022-10-29T11:24:12.224Z,151.1
2022-10-29T11:29:12.598Z,151.1
2022-10-29T11:34:12.210Z,136.9
2022-10-29T11:39:12.788Z,136.9
2022-10-29T11:44:12.041Z,125.7
2022-10-29T11:49:12.876Z,125.7
2022-10-29T11:54:12.349Z,110.9
2022-10-29T11:59:12.845Z,110.9
2022-10-29T12:04:12.322Z,94.7
2022-10-29T12:09:12.987Z,94.7
2022-10-29T12:14:12.712Z,77.7
2022-10-29T12:19:12.884Z,77.7
2022-10-29T12:24:13.103Z,98.7
2022-10-29T12:29:12.264Z,98.7
2022-10-29T12:34:12.158Z,118
2022-10-29T12:39:12.823Z,118
2022-10-29T12:44:12.982Z,101.6
2022-10-29T12:49:13.327Z,101.6
2022-10-29T12:54:12.782Z,117.5
2022-10-29T12:59:12.503Z,117.5
2022-10-29T13:04:11.893Z,95.9
2022-10-29T13:09:12.356Z,95.9
2022-10-29T13:14:12.704Z,76.2
2022-10-29T13:19:12.017Z,76.2
2022-10-29T13:24:12.444Z,85.8
2022-10-29T13:29:12.747Z,85.8
2022-10-29T13:34:12.624Z,83.5
2022-10-29T13:39:12.897Z,83.5
2022-10-29T13:44:12.317Z,40.9
2022-10-29T13:49:12.169Z,40.9
2022-10-29T13:54:12.703Z,46.3
2022-10-29T13:59:12.294Z,46.3
2022-10-29T14:04:12.699Z,43.2
2022-10-29T14:09:12.572Z,43.2
2022-10-29T14:14:13.072Z,24
2022-10-29T14:19:12.368Z,24
2022-10-29T14:24:13.001Z,24.5
2022-10-29T14:29:12.222Z,24.5
2022-10-29T14:34:12.413Z,29.2
2022-10-29T14:39:12.715Z,29.2
2022-10-29T14:44:12.119Z,20.3
2022-10-29T14:49:12.499Z,20.3
2022-10-29T14:54:12.070Z,19.2
2022-10-29T14:59:13.028Z,19.2
2022-10-29T15:04:12.231Z,29.3
2022-10-29T15:09:12.247Z,29.3
2022-10-29T15:14:12.293Z,22.1
2022-10-29T15:19:12.942Z,22.1
2022-10-29T15:24:15.317Z,12.2
2022-10-29T15:29:12.386Z,12.2
2022-10-29T15:34:12.603Z,11
2022-10-29T15:39:12.466Z,11
2022-10-29T15:44:12.489Z,6.4
2022-10-29T15:49:12.743Z,6.4
2022-10-29T15:54:12.693Z,0
2022-10-29T15:59:12.695Z,0
2022-10-29T16:04:12.459Z,0
2022-10-29T16:09:13.164Z,0
2022-10-29T16:14:12.239Z,0
2022-10-29T16:19:13.089Z,0
2022-10-29T16:24:12.778Z,0
2022-10-29T16:29:12.433Z,0
2022-10-29T16:34:13.123Z,0
2022-10-29T16:39:12.302Z,0
2022-10-29T16:44:12.367Z,0
2022-10-29T16:49:12.441Z,0
2022-10-29T16:54:13.104Z,0
2022-10-29T16:59:12.535Z,0
2022-10-29T17:04:13.324Z,0
2022-10-29T17:09:12.922Z,0
2022-10-29T17:14:12.783Z,0
2022-10-29T17:19:12.991Z,0
2022-10-29T17:24:12.589Z,0
2022-10-29T17:29:12.834Z,0
2022-10-29T17:34:12.402Z,0
2022-10-29T17:39:12.936Z,0
2022-10-29T17:44:12.383Z,0
2022-10-29T17:49:12.828Z,0
2022-10-29T17:54:13.075Z,0
2022-10-29T17:59:12.353Z,0
2022-10-29T18:04:13.111Z,0
2022-10-29T18:09:15.798Z,0
2022-10-29T18:14:12.613Z,0
2022-10-29T18:19:12.736Z,0
2022-10-29T18:24:12.717Z,0
2022-10-29T18:29:12.820Z,0
2022-10-29T18:34:12.333Z,0
2022-10-29T18:39:12.695Z,0
2022-10-29T18:44:13.030Z,0
2022-10-29T18:49:12.130Z,0
2022-10-29T18:54:12.317Z,0
2022-10-29T18:59:12.621Z,0
2022-10-29T19:04:12.844Z,0
2022-10-29T19:09:13.150Z,0
2022-10-29T19:14:12.469Z,0
2022-10-29T19:19:12.951Z,0
2022-10-29T19:24:13.213Z,0
2022-10-29T19:29:12.242Z,0
2022-10-29T19:34:12.359Z,0
2022-10-29T19:39:12.490Z,0
2022-10-29T19:44:12.791Z,0
2022-10-29T19:49:12.860Z,0
2022-10-29T19:54:12.475Z,0
2022-10-29T19:59:12.566Z,0
2022-10-29T20:04:12.824Z,0
2022-10-29T20:09:13.142Z,0
2022-10-29T20:14:12.239Z,0
2022-10-29T20:19:12.571Z,0
2022-10-29T20:24:12.771Z,0
2022-10-29T20:29:12.268Z,0
2022-10-29T20:34:12.413Z,0
2022-10-29T20:39:12.754Z,0
2022-10-29T20:44:12.926Z,0
2022-10-29T20:49:12.939Z,0
2022-10-29T20:54:12.644Z,0
2022-10-29T20:59:12.608Z,0
2022-10-29T21:04:13.192Z,0
2022-10-29T21:09:12.641Z,0
2022-10-29T21:14:12.358Z,0
2022-10-29T21:19:12.759Z,0
2022-10-29T21:24:12.559Z,0
2022-10-29T21:29:12.619Z,0
2022-10-29T21:34:12.587Z,0
2022-10-29T21:39:12.699Z,0
2022-10-29T21:44:13.201Z,0
2022-10-29T21:49:12.329Z,0
2022-10-29T21:54:12.710Z,0
2022-10-29T21:59:13.150Z,0
2022-10-29T22:04:13.042Z,0
2022-10-29T22:09:12.605Z,0
2022-10-29T22:14:12.887Z,0
2022-10-29T22:19:12.964Z,0
2022-10-29T22:24:12.277Z,0
2022-10-29T22:29:12.746Z,0
2022-10-29T22:34:13.089Z,0
2022-10-29T22:39:13.253Z,0
2022-10-29T22:44:12.504Z,0
2022-10-29T22:49:12.900Z,0
2022-10-29T22:54:13.179Z,0
2022-10-29T22:59:13.268Z,0
2022-10-29T23:04:12.490Z,0
2022-10-29T23:09:12.859Z,0
2022-10-29T23:14:12.344Z,0
2022-10-29T23:19:12.727Z,0
2022-10-29T23:24:12.959Z,0
2022-10-29T23:29:13.115Z,0
2022-10-29T23:34:12.422Z,0
2022-10-29T23:39:12.899Z,0
2022-10-29T23:44:13.167Z,0
2022-10-29T23:49:12.822Z,0
2022-10-29T23:54:13.148Z,0
2022-10-29T23:59:12.557Z,0
